Time,TemperatureF,DewpointF,PressureIn,WindDirection,WindDirectionDegrees,WindSpeedMPH,WindSpeedGustMPH,Humidity,HourlyPrecipIn,Conditions,Clouds,dailyrainin,SoftwareType,DateUTC
2013-08-15 00:03:00,61.9,60.5,29.75,North,0,4.2,-999.0,95,-99.99,,,0.00,Acu-Link.com,2013-08-15 07:03:00,
2013-08-15 00:18:00,61.7,60.3,29.75,NE,45,3.2,-999.0,95,-99.99,,,0.00,Acu-Link.com,2013-08-15 07:18:00,
2013-08-15 00:34:00,61.5,60.3,29.74,SSW,202,2.2,-999.0,96,-99.99,,,0.00,Acu-Link.com,2013-08-15 07:34:00,
2013-08-15 00:49:00,61.3,60.1,29.74,South,180,3.2,-999.0,96,-99.99,,,0.00,Acu-Link.com,2013-08-15 07:49:00,
2013-08-15 01:06:00,61.2,60.3,29.75,WSW,247,1.7,-999.0,97,-99.99,,,0.00,Acu-Link.com,2013-08-15 08:06:00,
2013-08-15 01:23:00,61.2,60.3,29.75,NW,315,2.7,-999.0,97,-99.99,,,0.00,Acu-Link.com,2013-08-15 08:23:00,
2013-08-15 01:38:00,61.2,60.6,29.75,North,0,0.0,-999.0,98,-99.99,,,0.00,Acu-Link.com,2013-08-15 08:38:00,
2013-08-15 01:53:00,61.2,60.6,29.75,North,0,2.2,-999.0,98,-99.99,,,0.00,Acu-Link.com,2013-08-15 08:53:00,
2013-08-15 02:08:00,61.3,60.7,29.74,West,270,2.2,-999.0,98,-99.99,,,0.00,Acu-Link.com,2013-08-15 09:08:00,
2013-08-15 02:23:00,61.3,60.7,29.74,NW,315,2.7,-999.0,98,-99.99,,,0.00,Acu-Link.com,2013-08-15 09:23:00,
2013-08-15 02:38:00,61.5,60.9,29.74,West,270,1.7,-999.0,98,-99.99,,,0.00,Acu-Link.com,2013-08-15 09:38:00,
2013-08-15 02:54:00,61.5,60.9,29.74,NNW,337,3.2,-999.0,98,-99.99,,,0.00,Acu-Link.com,2013-08-15 09:54:00,
2013-08-15 03:09:00,61.5,60.9,29.74,NNW,337,1.1,-999.0,98,-99.99,,,0.00,Acu-Link.com,2013-08-15 10:09:00,
2013-08-15 03:24:00,61.5,60.9,29.74,NE,45,0.0,-999.0,98,-99.99,,,0.00,Acu-Link.com,2013-08-15 10:24:00,
2013-08-15 03:40:00,61.5,60.9,29.74,WNW,292,3.2,-999.0,98,-99.99,,,0.00,Acu-Link.com,2013-08-15 10:40:00,
2013-08-15 03:55:00,61.5,60.9,29.74,NNW,337,2.2,-999.0,98,-99.99,,,0.00,Acu-Link.com,2013-08-15 10:55:00,
2013-08-15 04:10:00,61.5,60.9,29.74,WSW,247,1.1,-999.0,98,-99.99,,,0.00,Acu-Link.com,2013-08-15 11:10:00,
2013-08-15 04:26:00,61.5,60.9,29.73,West,270,1.1,-999.0,98,-99.99,,,0.00,Acu-Link.com,2013-08-15 11:26:00,
2013-08-15 04:41:00,61.3,60.7,29.73,WNW,292,3.2,-999.0,98,-99.99,,,0.00,Acu-Link.com,2013-08-15 11:41:00,
2013-08-15 04:56:00,61.3,60.7,29.73,WNW,292,2.7,-999.0,98,-99.99,,,0.00,Acu-Link.com,2013-08-15 11:56:00,
2013-08-15 05:11:00,61.2,60.6,29.73,ESE,112,0.0,-999.0,98,-99.99,,,0.00,Acu-Link.com,2013-08-15 12:11:00,
2013-08-15 05:27:00,61.2,60.6,29.74,East,90,0.0,-999.0,98,-99.99,,,0.00,Acu-Link.com,2013-08-15 12:27:00,
2013-08-15 05:42:00,61.0,60.4,29.73,NE,45,0.0,-999.0,98,-99.99,,,0.00,Acu-Link.com,2013-08-15 12:42:00,
2013-08-15 05:57:00,61.0,60.7,29.74,West,270,0.0,-999.0,99,-99.99,,,0.00,Acu-Link.com,2013-08-15 12:57:00,
2013-08-15 06:13:00,61.0,60.7,29.74,WNW,292,0.0,-999.0,99,-99.99,,,0.00,Acu-Link.com,2013-08-15 13:13:00,
2013-08-15 06:28:00,61.0,60.7,29.75,NNE,22,2.2,-999.0,99,-99.99,,,0.00,Acu-Link.com,2013-08-15 13:28:00,
2013-08-15 06:43:00,61.2,60.9,29.75,East,90,0.0,-999.0,99,-99.99,,,0.00,Acu-Link.com,2013-08-15 13:43:00,
2013-08-15 06:58:00,61.2,60.9,29.75,West,270,4.2,-999.0,99,-99.99,,,0.00,Acu-Link.com,2013-08-15 13:58:00,
2013-08-15 07:14:00,61.5,61.2,29.76,NNW,337,1.1,-999.0,99,-99.99,,,0.00,Acu-Link.com,2013-08-15 14:14:00,
2013-08-15 07:29:00,61.9,61.3,29.75,WNW,292,1.1,-999.0,98,-99.99,,,0.00,Acu-Link.com,2013-08-15 14:29:00,
2013-08-15 07:44:00,62.6,62.0,29.76,SSW,202,0.0,-999.0,98,-99.99,,,0.00,Acu-Link.com,2013-08-15 14:44:00,
2013-08-15 07:59:00,63.1,61.9,29.77,NNW,337,3.7,-999.0,96,-99.99,,,0.00,Acu-Link.com,2013-08-15 14:59:00,
2013-08-15 08:30:00,63.5,61.4,29.77,WSW,247,2.7,-999.0,93,-99.99,,,0.00,Acu-Link.com,2013-08-15 15:30:00,
2013-08-15 08:45:00,64.4,62.0,29.77,SE,135,1.7,-999.0,92,-99.99,,,0.00,Acu-Link.com,2013-08-15 15:45:00,
2013-08-15 09:16:00,65.7,62.0,29.78,West,270,5.3,-999.0,88,-99.99,,,0.00,Acu-Link.com,2013-08-15 16:16:00,
2013-08-15 09:31:00,66.0,62.0,29.78,NNE,22,2.2,-999.0,87,-99.99,,,0.00,Acu-Link.com,2013-08-15 16:31:00,
2013-08-15 09:47:00,67.6,62.2,29.78,WNW,292,4.2,-999.0,83,-99.99,,,0.00,Acu-Link.com,2013-08-15 16:47:00,
2013-08-15 10:02:00,68.4,62.7,29.78,West,270,3.7,-999.0,82,-99.99,,,0.00,Acu-Link.com,2013-08-15 17:02:00,
2013-08-15 10:17:00,70.2,63.4,29.79,South,180,2.7,-999.0,79,-99.99,,,0.00,Acu-Link.com,2013-08-15 17:17:00,
2013-08-15 10:32:00,71.8,63.4,29.79,NE,45,2.7,-999.0,75,-99.99,,,0.00,Acu-Link.com,2013-08-15 17:32:00,
2013-08-15 11:03:00,70.5,62.9,29.80,NNE,22,3.7,-999.0,77,-99.99,,,0.00,Acu-Link.com,2013-08-15 18:03:00,
2013-08-15 11:18:00,72.3,63.9,29.79,South,180,1.1,-999.0,75,-99.99,,,0.00,Acu-Link.com,2013-08-15 18:18:00,
2013-08-15 11:33:00,72.0,63.6,29.79,NNW,337,4.2,-999.0,75,-99.99,,,0.00,Acu-Link.com,2013-08-15 18:33:00,
2013-08-15 11:48:00,72.0,64.0,29.79,ESE,112,2.2,-999.0,76,-99.99,,,0.00,Acu-Link.com,2013-08-15 18:48:00,
2013-08-15 12:03:00,72.1,63.7,29.78,North,0,6.3,-999.0,75,-99.99,,,0.00,Acu-Link.com,2013-08-15 19:03:00,
2013-08-15 12:19:00,74.1,64.1,29.78,West,270,5.3,-999.0,71,-99.99,,,0.00,Acu-Link.com,2013-08-15 19:19:00,
2013-08-15 12:34:00,74.5,64.1,29.78,NNE,22,2.2,-999.0,70,-99.99,,,0.00,Acu-Link.com,2013-08-15 19:34:00,
2013-08-15 12:49:00,75.0,63.7,29.77,WNW,292,6.3,-999.0,68,-99.99,,,0.00,Acu-Link.com,2013-08-15 19:49:00,
2013-08-15 13:05:00,75.2,63.9,29.78,NNW,337,4.2,-999.0,68,-99.99,,,0.00,Acu-Link.com,2013-08-15 20:05:00,
2013-08-15 13:35:00,76.8,64.6,29.78,NNW,337,1.7,-999.0,66,-99.99,,,0.00,Acu-Link.com,2013-08-15 20:35:00,
2013-08-15 13:51:00,79.2,65.0,29.78,South,180,1.7,-999.0,62,-99.99,,,0.00,Acu-Link.com,2013-08-15 20:51:00,
2013-08-15 14:06:00,78.3,64.6,29.77,West,270,5.8,-999.0,63,-99.99,,,0.00,Acu-Link.com,2013-08-15 21:06:00,
2013-08-15 14:21:00,78.8,65.1,29.77,NNW,337,5.3,-999.0,63,-99.99,,,0.00,Acu-Link.com,2013-08-15 21:21:00,
2013-08-15 14:51:00,78.1,64.9,29.76,West,270,9.4,-999.0,64,-99.99,,,0.00,Acu-Link.com,2013-08-15 21:51:00,
2013-08-15 15:07:00,77.9,64.7,29.76,North,0,4.2,-999.0,64,-99.99,,,0.00,Acu-Link.com,2013-08-15 22:07:00,
2013-08-15 15:22:00,77.7,64.5,29.76,WNW,292,4.7,-999.0,64,-99.99,,,0.00,Acu-Link.com,2013-08-15 22:22:00,
2013-08-15 15:37:00,79.5,65.3,29.76,North,0,2.7,-999.0,62,-99.99,,,0.00,Acu-Link.com,2013-08-15 22:37:00,
2013-08-15 15:52:00,77.4,64.7,29.76,NNW,337,3.7,-999.0,65,-99.99,,,0.00,Acu-Link.com,2013-08-15 22:52:00,
2013-08-15 16:07:00,78.1,64.5,29.75,North,0,3.2,-999.0,63,-99.99,,,0.00,Acu-Link.com,2013-08-15 23:07:00,
2013-08-15 16:22:00,78.8,64.7,29.75,NNE,22,3.7,-999.0,62,-99.99,,,0.00,Acu-Link.com,2013-08-15 23:22:00,
2013-08-15 16:38:00,78.8,65.1,29.75,East,90,2.7,-999.0,63,-99.99,,,0.00,Acu-Link.com,2013-08-15 23:38:00,
2013-08-15 16:53:00,79.7,65.0,29.75,NW,315,6.3,-999.0,61,-99.99,,,0.00,Acu-Link.com,2013-08-15 23:53:00,
2013-08-15 17:08:00,81.0,65.3,29.74,West,270,4.7,-999.0,59,-99.99,,,0.00,Acu-Link.com,2013-08-16 00:08:00,
2013-08-15 17:23:00,80.8,65.1,29.74,NNW,337,3.7,-999.0,59,-99.99,,,0.00,Acu-Link.com,2013-08-16 00:23:00,
2013-08-15 17:54:00,81.1,64.9,29.74,East,90,2.2,-999.0,58,-99.99,,,0.00,Acu-Link.com,2013-08-16 00:54:00,
2013-08-15 18:09:00,76.1,63.9,29.73,NNW,337,6.8,-999.0,66,-99.99,,,0.00,Acu-Link.com,2013-08-16 01:09:00,
2013-08-15 18:25:00,71.4,63.4,29.74,North,0,3.7,-999.0,76,-99.99,,,0.00,Acu-Link.com,2013-08-16 01:25:00,
2013-08-15 18:40:00,68.7,63.3,29.73,ESE,112,5.3,-999.0,83,-99.99,,,0.00,Acu-Link.com,2013-08-16 01:40:00,
2013-08-15 18:55:00,68.0,63.0,29.73,SSW,202,6.8,-999.0,84,-99.99,,,0.00,Acu-Link.com,2013-08-16 01:55:00,
2013-08-15 19:10:00,67.8,63.5,29.73,WNW,292,5.3,-999.0,86,-99.99,,,0.00,Acu-Link.com,2013-08-16 02:10:00,
2013-08-15 19:25:00,66.9,63.2,29.73,WNW,292,2.7,-999.0,88,-99.99,,,0.00,Acu-Link.com,2013-08-16 02:25:00,
2013-08-15 19:40:00,66.2,63.2,29.73,West,270,5.8,-999.0,90,-99.99,,,0.00,Acu-Link.com,2013-08-16 02:40:00,
2013-08-15 19:55:00,65.7,63.0,29.74,WSW,247,9.9,-999.0,91,-99.99,,,0.00,Acu-Link.com,2013-08-16 02:55:00,
2013-08-15 20:11:00,65.3,62.9,29.74,WSW,247,5.3,-999.0,92,-99.99,,,0.00,Acu-Link.com,2013-08-16 03:11:00,
2013-08-15 20:26:00,65.1,62.7,29.74,NNW,337,4.2,-999.0,92,-99.99,,,0.00,Acu-Link.com,2013-08-16 03:26:00,
2013-08-15 20:41:00,64.6,62.5,29.74,NNW,337,2.7,-999.0,93,-99.99,,,0.00,Acu-Link.com,2013-08-16 03:41:00,
2013-08-15 20:57:00,64.0,62.2,29.74,West,270,5.3,-999.0,94,-99.99,,,0.00,Acu-Link.com,2013-08-16 03:57:00,
2013-08-15 21:12:00,63.5,61.7,29.74,NW,315,2.7,-999.0,94,-99.99,,,0.00,Acu-Link.com,2013-08-16 04:12:00,
2013-08-15 21:27:00,62.8,61.3,29.76,North,0,4.2,-999.0,95,-99.99,,,0.00,Acu-Link.com,2013-08-16 04:27:00,
2013-08-15 21:42:00,62.2,61.0,29.76,NNE,22,4.2,-999.0,96,-99.99,,,0.00,Acu-Link.com,2013-08-16 04:42:00,
2013-08-15 21:57:00,61.9,60.7,29.76,North,0,4.2,-999.0,96,-99.99,,,0.00,Acu-Link.com,2013-08-16 04:57:00,
2013-08-15 22:13:00,61.2,60.3,29.76,South,180,4.7,-999.0,97,-99.99,,,0.00,Acu-Link.com,2013-08-16 05:13:00,
2013-08-15 22:28:00,60.8,59.9,29.77,WSW,247,4.2,-999.0,97,-99.99,,,0.00,Acu-Link.com,2013-08-16 05:28:00,
2013-08-15 22:43:00,60.4,59.8,29.77,ENE,67,4.7,-999.0,98,-99.99,,,0.00,Acu-Link.com,2013-08-16 05:43:00,
2013-08-15 22:58:00,60.1,59.5,29.77,NNE,22,4.2,-999.0,98,-99.99,,,0.00,Acu-Link.com,2013-08-16 05:58:00,
2013-08-15 23:13:00,59.9,59.3,29.78,WNW,292,2.7,-999.0,98,-99.99,,,0.00,Acu-Link.com,2013-08-16 06:13:00,
2013-08-15 23:29:00,59.7,59.4,29.78,ENE,67,3.2,-999.0,99,-99.99,,,0.00,Acu-Link.com,2013-08-16 06:29:00,
2013-08-15 23:44:00,59.5,59.2,29.78,West,270,2.7,-999.0,99,-99.99,,,0.00,Acu-Link.com,2013-08-16 06:44:00,
2013-08-15 23:59:00,59.5,59.2,29.78,WNW,292,2.2,-999.0,99,-99.99,,,0.00,Acu-Link.com,2013-08-16 06:59:00,